createdAt,value
2018-08-23T00:00:37.285Z,101561.47
2018-08-23T00:03:40.647Z,101557.66
2018-08-23T00:06:49.647Z,101561.20
2018-08-23T00:09:54.043Z,101566.43
2018-08-23T00:12:58.307Z,101566.09
2018-08-23T00:16:01.544Z,101569.64
2018-08-23T00:19:05.183Z,101565.91
2018-08-23T00:22:08.531Z,101566.81
2018-08-23T00:25:11.816Z,101570.94
2018-08-23T00:28:15.104Z,101571.24
2018-08-23T00:31:18.450Z,101571.48
2018-08-23T00:34:23.796Z,101575.56
2018-08-23T00:37:27.096Z,101576.74
2018-08-23T00:40:31.025Z,101581.23
2018-08-23T00:43:34.260Z,101574.76
2018-08-23T00:46:37.548Z,101574.34
2018-08-23T00:49:40.872Z,101575.08
2018-08-23T00:52:46.327Z,101570.73
2018-08-23T00:55:58.550Z,101573.30
2018-08-23T00:59:02.762Z,101568.87
2018-08-23T01:02:08.210Z,101568.17
2018-08-23T01:05:12.544Z,101564.87
2018-08-23T01:08:19.968Z,101559.58
2018-08-23T01:11:24.632Z,101562.22
2018-08-23T01:14:27.859Z,101560.27
2018-08-23T01:17:31.130Z,101555.48
2018-08-23T01:20:34.315Z,101560.83
2018-08-23T01:23:37.965Z,101559.66
2018-08-23T01:26:41.233Z,101559.98
2018-08-23T01:29:44.410Z,101555.71
2018-08-23T01:32:47.716Z,101552.72
2018-08-23T01:35:52.518Z,101550.39
2018-08-23T01:38:55.743Z,101549.31
2018-08-23T01:41:59.100Z,101545.45
2018-08-23T01:45:04.637Z,101540.07
2018-08-23T01:48:09.048Z,101541.38
2018-08-23T01:51:12.339Z,101541.81
2018-08-23T01:54:15.760Z,101538.94
2018-08-23T01:57:23.160Z,101537.94
2018-08-23T02:00:28.693Z,101539.77
2018-08-23T02:03:31.938Z,101537.63
2018-08-23T02:06:36.196Z,101536.06
2018-08-23T02:09:39.492Z,101534.51
2018-08-23T02:12:48.059Z,101534.38
2018-08-23T02:15:52.003Z,101532.25
2018-08-23T02:18:55.301Z,101529.10
2018-08-23T02:21:58.610Z,101532.46
2018-08-23T02:25:01.793Z,101536.12
2018-08-23T02:28:12.080Z,101532.80
2018-08-23T02:31:15.616Z,101534.89
2018-08-23T02:34:19.046Z,101535.51
2018-08-23T02:37:23.482Z,101529.31
2018-08-23T02:40:28.427Z,101534.49
2018-08-23T02:43:31.647Z,101537.21
2018-08-23T02:46:35.473Z,101538.17
2018-08-23T02:49:38.770Z,101540.07
2018-08-23T02:52:42.024Z,101534.68
2018-08-23T02:55:49.459Z,101534.06
2018-08-23T02:59:00.642Z,101535.83
2018-08-23T03:02:10.914Z,101537.73
2018-08-23T03:05:15.275Z,101536.91
2018-08-23T03:08:28.689Z,101540.95
2018-08-23T03:11:35.329Z,101547.83
2018-08-23T03:14:39.133Z,101545.69
2018-08-23T03:17:47.560Z,101546.10
2018-08-23T03:21:01.832Z,101545.90
2018-08-23T03:24:06.198Z,101543.26
2018-08-23T03:27:09.479Z,101536.40
2018-08-23T03:30:13.819Z,101540.43
2018-08-23T03:33:17.317Z,101540.73
2018-08-23T03:36:20.749Z,101538.87
2018-08-23T03:39:24.245Z,101536.21
2018-08-23T03:42:27.847Z,101533.21
2018-08-23T03:45:31.102Z,101524.41
2018-08-23T03:48:34.375Z,101528.52
2018-08-23T03:51:37.852Z,101530.29
2018-08-23T03:54:41.116Z,101527.00
2018-08-23T03:57:49.798Z,101523.00
2018-08-23T04:01:01.600Z,101531.73
2018-08-23T04:04:04.859Z,101530.43
2018-08-23T04:07:08.145Z,101543.06
2018-08-23T04:10:11.475Z,101542.14
2018-08-23T04:13:14.781Z,101544.66
2018-08-23T04:16:25.060Z,101546.11
2018-08-23T04:19:29.235Z,101548.18
2018-08-23T04:22:32.500Z,101552.13
2018-08-23T04:25:35.654Z,101553.26
2018-08-23T04:28:40.103Z,101562.86
2018-08-23T04:31:43.483Z,101555.31
2018-08-23T04:34:46.723Z,101562.77
2018-08-23T04:37:50.559Z,101560.97
2018-08-23T04:40:59.799Z,101565.76
2018-08-23T04:44:12.447Z,101560.82
2018-08-23T04:47:15.903Z,101561.95
2018-08-23T04:50:19.542Z,101560.33
2018-08-23T04:53:23.804Z,101555.85
2018-08-23T04:56:27.161Z,101556.31
2018-08-23T04:59:30.502Z,101548.73
2018-08-23T05:02:33.974Z,101549.26
2018-08-23T05:05:37.443Z,101549.62
2018-08-23T05:08:41.035Z,101556.54
2018-08-23T05:11:44.602Z,101564.70
2018-08-23T05:14:47.977Z,101567.22
2018-08-23T05:17:52.298Z,101569.74
2018-08-23T05:20:55.621Z,101568.91
2018-08-23T05:24:03.303Z,101568.28
2018-08-23T05:27:06.489Z,101569.32
2018-08-23T05:30:09.759Z,101574.39
2018-08-23T05:33:13.982Z,101567.42
2018-08-23T05:36:17.795Z,101566.19
2018-08-23T05:39:22.926Z,101564.70
2018-08-23T05:42:38.194Z,101563.07
2018-08-23T05:45:48.181Z,101564.27
2018-08-23T05:48:51.966Z,101562.84
2018-08-23T05:51:56.968Z,101560.11
2018-08-23T05:55:00.778Z,101554.45
2018-08-23T05:58:21.944Z,101556.86
2018-08-23T06:01:25.382Z,101553.10
2018-08-23T06:04:39.334Z,101555.60
2018-08-23T06:07:42.682Z,101553.76
2018-08-23T06:10:49.554Z,101544.93
2018-08-23T06:13:53.791Z,101538.49
2018-08-23T06:16:58.609Z,101538.81
2018-08-23T06:20:01.911Z,101536.83
2018-08-23T06:23:05.324Z,101534.49
2018-08-23T06:26:08.676Z,101534.96
2018-08-23T06:29:16.149Z,101536.44
2018-08-23T06:32:19.499Z,101540.04
2018-08-23T06:35:24.503Z,101536.61
2018-08-23T06:38:27.793Z,101531.64
2018-08-23T06:41:31.144Z,101532.01
2018-08-23T06:44:41.320Z,101536.45
2018-08-23T06:47:49.768Z,101528.38
2018-08-23T06:50:56.092Z,101526.74
2018-08-23T06:54:01.445Z,101525.87
2018-08-23T06:57:04.740Z,101529.26
2018-08-23T07:00:08.205Z,101538.95
2018-08-23T07:03:11.540Z,101525.21
2018-08-23T07:06:14.884Z,101527.27
2018-08-23T07:09:18.826Z,101525.41
2018-08-23T07:12:22.915Z,101524.35
2018-08-23T07:15:26.155Z,101516.32
2018-08-23T07:18:31.109Z,101513.98
2018-08-23T07:21:34.417Z,101518.34
2018-08-23T07:24:41.589Z,101521.87
2018-08-23T07:27:45.457Z,101519.13
2018-08-23T07:30:49.862Z,101529.02
2018-08-23T07:33:54.896Z,101532.19
2018-08-23T07:37:00.100Z,101541.45
2018-08-23T07:40:10.945Z,101542.65
2018-08-23T07:43:14.276Z,101538.58
2018-08-23T07:46:18.739Z,101539.79
2018-08-23T07:49:23.530Z,101539.39
2018-08-23T07:52:28.211Z,101538.49
2018-08-23T07:55:31.359Z,101531.13
2018-08-23T07:58:34.608Z,101538.37
2018-08-23T08:01:38.858Z,101541.97
2018-08-23T08:04:42.063Z,101532.93
2018-08-23T08:07:45.514Z,101530.91
2018-08-23T08:10:48.941Z,101531.43
2018-08-23T08:14:55.727Z,101526.97
2018-08-23T08:18:09.127Z,101532.33
2018-08-23T08:21:16.844Z,101530.33
2018-08-23T08:24:20.139Z,101527.75
2018-08-23T08:27:24.884Z,101526.72
2018-08-23T08:30:39.891Z,101525.84
2018-08-23T08:33:43.166Z,101524.18
2018-08-23T08:36:47.757Z,101521.40
2018-08-23T08:39:52.132Z,101527.17
2018-08-23T08:42:55.299Z,101526.21
2018-08-23T08:45:59.762Z,101522.05
2018-08-23T08:49:03.302Z,101521.75
2018-08-23T08:52:06.615Z,101518.68
2018-08-23T08:55:11.935Z,101521.93
2018-08-23T08:58:15.325Z,101513.94
2018-08-23T09:01:18.912Z,101512.32
2018-08-23T09:04:28.054Z,101501.13
2018-08-23T09:07:32.865Z,101506.96
2018-08-23T09:10:36.136Z,101504.84
2018-08-23T09:13:46.428Z,101505.85
2018-08-23T09:16:49.760Z,101502.99
2018-08-23T09:20:01.670Z,101497.69
2018-08-23T09:23:04.913Z,101493.40
2018-08-23T09:26:08.278Z,101492.49
2018-08-23T09:29:23.252Z,101489.28
2018-08-23T09:32:27.543Z,101486.70
2018-08-23T09:35:31.943Z,101487.25
2018-08-23T09:38:35.188Z,101485.59
2018-08-23T09:41:38.544Z,101479.47
2018-08-23T09:44:58.063Z,101476.76
2018-08-23T09:48:01.356Z,101478.37
2018-08-23T09:51:10.836Z,101475.57
2018-08-23T09:54:18.321Z,101469.43
2018-08-23T09:57:22.771Z,101462.33
2018-08-23T10:00:31.771Z,101459.95
2018-08-23T10:03:40.455Z,101460.27
2018-08-23T10:06:49.349Z,101455.43
2018-08-23T10:09:57.909Z,101449.92
2018-08-23T10:13:06.571Z,101453.03
2018-08-23T10:16:15.264Z,101450.75
2018-08-23T10:19:24.900Z,101452.91
2018-08-23T10:22:38.188Z,101449.10
2018-08-23T10:25:44.771Z,101444.66
2018-08-23T10:28:50.048Z,101439.89
2018-08-23T10:31:54.255Z,101442.20
2018-08-23T10:34:57.529Z,101438.81
2018-08-23T10:38:00.882Z,101433.68
2018-08-23T10:41:04.619Z,101430.50
2018-08-23T10:44:07.922Z,101431.47
2018-08-23T10:47:11.215Z,101427.66
2018-08-23T10:50:14.612Z,101427.18
2018-08-23T10:53:18.454Z,101416.93
2018-08-23T10:56:25.418Z,101419.60
2018-08-23T10:59:28.602Z,101415.29
2018-08-23T11:02:31.911Z,101414.38
2018-08-23T11:05:35.757Z,101411.47
2018-08-23T11:08:39.637Z,101407.69
2018-08-23T11:11:42.972Z,101408.39
2018-08-23T11:14:46.323Z,101406.59
2018-08-23T11:17:54.996Z,101398.41
2018-08-23T11:20:58.356Z,101398.49
2018-08-23T11:24:02.072Z,101399.16
2018-08-23T11:27:08.334Z,101395.00
2018-08-23T11:30:11.622Z,101386.49
2018-08-23T11:33:14.894Z,101387.04
2018-08-23T11:36:18.157Z,101373.31
2018-08-23T11:39:23.004Z,101375.80
2018-08-23T11:42:26.211Z,101374.18
2018-08-23T11:45:29.563Z,101369.32
2018-08-23T11:48:32.819Z,101355.35
2018-08-23T11:51:36.403Z,101353.07
2018-08-23T11:54:40.684Z,101350.53
2018-08-23T11:57:43.953Z,101348.34
2018-08-23T12:00:47.227Z,101334.81
2018-08-23T12:03:50.462Z,101323.08
2018-08-23T12:06:57.454Z,101316.28
2018-08-23T12:10:00.867Z,101317.36
2018-08-23T12:13:04.102Z,101323.73
2018-08-23T12:16:09.389Z,101310.17
2018-08-23T12:19:12.707Z,101309.45
2018-08-23T12:22:15.978Z,101320.07
2018-08-23T12:25:19.307Z,101315.62
2018-08-23T12:28:29.943Z,101316.99
2018-08-23T12:31:33.298Z,101306.51
2018-08-23T12:34:38.328Z,101304.16
2018-08-23T12:37:47.232Z,101301.79
2018-08-23T12:40:55.706Z,101298.69
2018-08-23T12:44:00.616Z,101301.58
2018-08-23T12:47:05.443Z,101299.59
2018-08-23T12:50:08.697Z,101297.17
2018-08-23T12:53:12.328Z,101292.36
2018-08-23T12:56:15.512Z,101290.78
2018-08-23T12:59:18.756Z,101284.10
2018-08-23T13:02:23.391Z,101277.07
2018-08-23T13:05:26.583Z,101277.79
2018-08-23T13:08:29.896Z,101268.50
2018-08-23T13:11:33.220Z,101263.44
2018-08-23T13:14:36.495Z,101263.60
2018-08-23T13:17:39.789Z,101259.46
2018-08-23T13:20:43.087Z,101257.84
2018-08-23T13:23:46.800Z,101242.06
2018-08-23T13:26:50.139Z,101241.15
2018-08-23T13:29:54.661Z,101228.67
2018-08-23T13:32:58.527Z,101222.71
2018-08-23T13:36:01.954Z,101224.65
2018-08-23T13:39:08.208Z,101219.01
2018-08-23T13:42:11.475Z,101217.20
2018-08-23T13:45:14.652Z,101208.88
2018-08-23T13:48:18.032Z,101209.04
2018-08-23T13:51:21.271Z,101203.20
2018-08-23T13:54:25.289Z,101203.28
2018-08-23T13:57:28.681Z,101201.31
2018-08-23T14:00:37.924Z,101204.44
2018-08-23T14:03:41.444Z,101192.09
2018-08-23T14:06:44.804Z,101192.42
2018-08-23T14:09:48.032Z,101195.45
2018-08-23T14:12:53.486Z,101189.78
2018-08-23T14:16:02.232Z,101188.82
2018-08-23T14:19:05.492Z,101182.88
2018-08-23T14:22:08.952Z,101176.36
2018-08-23T14:25:12.398Z,101171.52
2018-08-23T14:28:15.584Z,101167.48
2018-08-23T14:31:18.991Z,101172.01
2018-08-23T14:34:23.068Z,101165.46
2018-08-23T14:37:26.721Z,101156.53
2018-08-23T14:40:30.066Z,101156.38
2018-08-23T14:43:33.354Z,101152.01
2018-08-23T14:46:42.127Z,101151.49
2018-08-23T14:49:45.390Z,101137.73
2018-08-23T14:52:50.129Z,101129.64
2018-08-23T14:55:59.320Z,101126.72
2018-08-23T14:59:02.632Z,101115.29
2018-08-23T15:02:06.189Z,101109.42
2018-08-23T15:05:09.504Z,101103.84
2018-08-23T15:08:12.933Z,101102.08
2018-08-23T15:11:16.072Z,101103.24
2018-08-23T15:14:19.545Z,101098.95
2018-08-23T15:17:24.733Z,101107.11
2018-08-23T15:20:28.032Z,101097.84
2018-08-23T15:23:31.396Z,101100.56
2018-08-23T15:26:34.800Z,101096.88
2018-08-23T15:29:37.954Z,101089.32
2018-08-23T15:32:41.222Z,101089.29
2018-08-23T15:35:44.559Z,101085.26
2018-08-23T15:38:47.788Z,101084.66
2018-08-23T15:41:51.210Z,101078.07
2018-08-23T15:44:55.478Z,101083.31
2018-08-23T15:47:58.819Z,101078.10
2018-08-23T15:51:01.912Z,101076.53
2018-08-23T15:54:05.697Z,101070.41
2018-08-23T15:57:08.947Z,101068.03
2018-08-23T16:00:12.235Z,101072.78
2018-08-23T16:03:15.995Z,101068.29
2018-08-23T16:06:19.679Z,101070.72
2018-08-23T16:09:24.488Z,101065.58
2018-08-23T16:12:27.779Z,101068.70
2018-08-23T16:15:31.500Z,101072.98
2018-08-23T16:18:40.303Z,101066.93
2018-08-23T16:21:43.699Z,101064.88
2018-08-23T16:24:47.126Z,101067.71
2018-08-23T16:27:51.109Z,101077.11
2018-08-23T16:30:55.665Z,101074.90
2018-08-23T16:33:59.304Z,101068.24
2018-08-23T16:37:02.720Z,101067.53
2018-08-23T16:40:05.960Z,101058.01
2018-08-23T16:43:09.160Z,101050.38
2018-08-23T16:46:12.508Z,101058.83
2018-08-23T16:49:15.733Z,101055.38
2018-08-23T16:52:19.043Z,101059.59
2018-08-23T16:55:23.600Z,101057.87
2018-08-23T16:58:27.931Z,101056.87
2018-08-23T17:01:31.238Z,101059.67
2018-08-23T17:04:40.025Z,101057.98
2018-08-23T17:07:45.557Z,101059.61
2018-08-23T17:10:48.958Z,101050.81
2018-08-23T17:13:53.326Z,101045.38
2018-08-23T17:17:02.431Z,101050.20
2018-08-23T17:20:05.767Z,101049.65
2018-08-23T17:23:09.058Z,101052.09
2018-08-23T17:26:12.347Z,101052.68
2018-08-23T17:29:15.746Z,101052.99
2018-08-23T17:32:20.035Z,101059.21
2018-08-23T17:35:24.623Z,101064.89
2018-08-23T17:38:29.197Z,101072.16
2018-08-23T17:41:32.367Z,101067.89
2018-08-23T17:44:35.715Z,101074.78
2018-08-23T17:47:38.985Z,101074.02
2018-08-23T17:50:42.319Z,101076.88
2018-08-23T17:53:46.646Z,101077.14
2018-08-23T17:56:49.926Z,101080.99
2018-08-23T17:59:54.325Z,101087.57
2018-08-23T18:02:58.066Z,101098.09
2018-08-23T18:06:01.364Z,101109.90
2018-08-23T18:09:07.655Z,101117.15
2018-08-23T18:12:10.807Z,101132.77
2018-08-23T18:15:14.108Z,101158.75
2018-08-23T18:18:17.415Z,101161.98
2018-08-23T18:21:20.700Z,101174.05
2018-08-23T18:24:24.708Z,101174.63
2018-08-23T18:27:28.011Z,101174.70
2018-08-23T18:30:31.518Z,101178.56
2018-08-23T18:33:34.908Z,101183.19
2018-08-23T18:36:38.085Z,101187.61
2018-08-23T18:39:41.292Z,101181.41
2018-08-23T18:42:44.409Z,101177.35
2018-08-23T18:45:47.712Z,101192.21
2018-08-23T18:48:51.187Z,101193.64
2018-08-23T18:51:54.377Z,101194.62
2018-08-23T18:54:58.424Z,101197.65
2018-08-23T18:58:02.656Z,101196.99
2018-08-23T19:01:06.226Z,101207.57
2018-08-23T19:04:09.556Z,101222.83
2018-08-23T19:07:18.219Z,101233.15
2018-08-23T19:10:23.525Z,101249.96
2018-08-23T19:13:26.729Z,101237.99
2018-08-23T19:16:35.447Z,101246.82
2018-08-23T19:19:38.729Z,101253.95
2018-08-23T19:22:43.259Z,101258.07
2018-08-23T19:25:46.541Z,101253.35
2018-08-23T19:28:50.041Z,101252.80
2018-08-23T19:31:53.401Z,101255.06
2018-08-23T19:34:56.712Z,101245.13
2018-08-23T19:38:00.000Z,101232.73
2018-08-23T19:41:03.226Z,101244.30
2018-08-23T19:44:06.478Z,101239.88
2018-08-23T19:47:16.059Z,101248.15
2018-08-23T19:50:19.371Z,101255.51
2018-08-23T19:53:22.683Z,101261.58
2018-08-23T19:56:26.111Z,101262.11
2018-08-23T19:59:29.492Z,101270.62
2018-08-23T20:02:32.868Z,101276.85
2018-08-23T20:05:36.287Z,101284.46
2018-08-23T20:08:39.516Z,101289.82
2018-08-23T20:11:42.864Z,101295.52
2018-08-23T20:14:46.186Z,101299.91
2018-08-23T20:17:50.163Z,101299.60
2018-08-23T20:20:53.565Z,101304.35
2018-08-23T20:23:56.785Z,101296.13
2018-08-23T20:27:00.040Z,101286.02
2018-08-23T20:30:03.337Z,101277.20
2018-08-23T20:33:06.859Z,101272.66
2018-08-23T20:36:10.192Z,101271.01
2018-08-23T20:39:14.698Z,101314.62
2018-08-23T20:42:17.893Z,101345.51
2018-08-23T20:45:22.247Z,101359.20
2018-08-23T20:48:25.671Z,101370.73
2018-08-23T20:51:28.905Z,101385.31
2018-08-23T20:54:32.119Z,101404.84
2018-08-23T20:57:35.364Z,101412.50
2018-08-23T21:00:38.571Z,101419.18
2018-08-23T21:03:41.949Z,101416.51
2018-08-23T21:06:45.202Z,101398.63
2018-08-23T21:09:48.641Z,101383.31
2018-08-23T21:12:53.120Z,101375.23
2018-08-23T21:15:56.403Z,101376.90
2018-08-23T21:18:59.885Z,101366.23
2018-08-23T21:22:03.218Z,101357.31
2018-08-23T21:25:06.496Z,101343.19
2018-08-23T21:28:09.797Z,101345.85
2018-08-23T21:31:13.158Z,101354.94
2018-08-23T21:34:16.575Z,101350.21
2018-08-23T21:37:20.432Z,101350.04
2018-08-23T21:40:23.934Z,101350.26
2018-08-23T21:43:27.287Z,101345.67
2018-08-23T21:46:30.691Z,101339.18
2018-08-23T21:49:33.962Z,101328.58
2018-08-23T21:52:37.400Z,101323.47
2018-08-23T21:55:41.109Z,101325.99
2018-08-23T21:58:44.742Z,101328.33
2018-08-23T22:01:48.112Z,101322.97
2018-08-23T22:04:54.731Z,101326.43
2018-08-23T22:07:57.985Z,101331.55
2018-08-23T22:11:01.510Z,101328.45
2018-08-23T22:14:04.923Z,101329.65
2018-08-23T22:17:08.159Z,101336.52
2018-08-23T22:20:11.544Z,101333.34
2018-08-23T22:23:15.787Z,101333.63
2018-08-23T22:26:19.071Z,101337.12
2018-08-23T22:29:22.933Z,101332.18
2018-08-23T22:32:27.203Z,101329.22
2018-08-23T22:35:30.536Z,101327.33
2018-08-23T22:38:34.031Z,101324.13
2018-08-23T22:41:37.480Z,101318.88
2018-08-23T22:44:40.880Z,101327.79
2018-08-23T22:47:44.104Z,101325.67
2018-08-23T22:50:47.560Z,101320.78
2018-08-23T22:53:50.829Z,101321.58
2018-08-23T22:56:54.204Z,101313.32
2018-08-23T22:59:57.625Z,101309.89
2018-08-23T23:03:00.971Z,101300.56
2018-08-23T23:06:04.196Z,101302.30
2018-08-23T23:09:10.224Z,101305.26
2018-08-23T23:12:13.523Z,101308.21
2018-08-23T23:15:22.120Z,101304.14
2018-08-23T23:18:25.436Z,101299.46
2018-08-23T23:21:28.875Z,101298.95
2018-08-23T23:25:06.859Z,101297.21
2018-08-23T23:28:10.358Z,101293.15
2018-08-23T23:31:13.636Z,101302.03
2018-08-23T23:34:17.148Z,101301.67
2018-08-23T23:37:21.666Z,101307.54
2018-08-23T23:40:25.937Z,101302.96
2018-08-23T23:43:29.162Z,101297.41
2018-08-23T23:46:32.492Z,101289.11
2018-08-23T23:49:35.830Z,101287.32
2018-08-23T23:52:39.035Z,101289.21
2018-08-23T23:55:42.223Z,101286.10
2018-08-23T23:58:45.564Z,101285.97
